sensor_id;sensor_type;location;lat;lon;timestamp;P1;durP1;ratioP1;P2;durP2;ratioP2
5153;SDS011;2595;53.584;10.084;2022-09-21T00:00:35;4.73;;;4.30;;
5153;SDS011;2595;53.584;10.084;2022-09-21T00:03:02;5.10;;;4.50;;
5153;SDS011;2595;53.584;10.084;2022-09-21T00:05:29;4.47;;;4.10;;
5153;SDS011;2595;53.584;10.084;2022-09-21T00:07:54;5.53;;;5.10;;
5153;SDS011;2595;53.584;10.084;2022-09-21T00:10:23;4.87;;;3.60;;
5153;SDS011;2595;53.584;10.084;2022-09-21T00:12:48;6.87;;;5.37;;
5153;SDS011;2595;53.584;10.084;2022-09-21T00:15:15;5.40;;;4.53;;
5153;SDS011;2595;53.584;10.084;2022-09-21T00:17:44;4.80;;;4.40;;
5153;SDS011;2595;53.584;10.084;2022-09-21T00:20:14;5.07;;;3.60;;
5153;SDS011;2595;53.584;10.084;2022-09-21T00:22:40;4.90;;;4.60;;
5153;SDS011;2595;53.584;10.084;2022-09-21T00:25:06;4.67;;;4.27;;
5153;SDS011;2595;53.584;10.084;2022-09-21T00:27:33;4.97;;;4.03;;
5153;SDS011;2595;53.584;10.084;2022-09-21T00:29:59;5.00;;;4.20;;
5153;SDS011;2595;53.584;10.084;2022-09-21T00:32:28;4.27;;;3.97;;
5153;SDS011;2595;53.584;10.084;2022-09-21T00:34:55;4.40;;;4.00;;
5153;SDS011;2595;53.584;10.084;2022-09-21T00:37:22;4.73;;;4.00;;
5153;SDS011;2595;53.584;10.084;2022-09-21T00:39:48;6.17;;;5.27;;
5153;SDS011;2595;53.584;10.084;2022-09-21T00:42:17;4.10;;;3.77;;
5153;SDS011;2595;53.584;10.084;2022-09-21T00:44:45;5.83;;;3.87;;
5153;SDS011;2595;53.584;10.084;2022-09-21T00:47:12;6.63;;;4.20;;
5153;SDS011;2595;53.584;10.084;2022-09-21T00:49:40;6.80;;;4.00;;
5153;SDS011;2595;53.584;10.084;2022-09-21T00:52:08;3.90;;;3.60;;
5153;SDS011;2595;53.584;10.084;2022-09-21T00:54:49;4.67;;;4.27;;
5153;SDS011;2595;53.584;10.084;2022-09-21T00:57:41;4.67;;;4.27;;
5153;SDS011;2595;53.584;10.084;2022-09-21T01:00:11;6.93;;;3.73;;
5153;SDS011;2595;53.584;10.084;2022-09-21T01:02:37;3.97;;;3.67;;
5153;SDS011;2595;53.584;10.084;2022-09-21T01:05:04;4.47;;;4.10;;
5153;SDS011;2595;53.584;10.084;2022-09-21T01:07:32;4.53;;;4.10;;
5153;SDS011;2595;53.584;10.084;2022-09-21T01:10:03;4.10;;;3.80;;
5153;SDS011;2595;53.584;10.084;2022-09-21T01:12:46;3.30;;;3.10;;
5153;SDS011;2595;53.584;10.084;2022-09-21T01:18:27;3.87;;;3.53;;
5153;SDS011;2595;53.584;10.084;2022-09-21T01:21:05;5.60;;;4.20;;
5153;SDS011;2595;53.584;10.084;2022-09-21T01:32:41;4.53;;;4.10;;
5153;SDS011;2595;53.584;10.084;2022-09-21T01:35:16;3.80;;;3.20;;
5153;SDS011;2595;53.584;10.084;2022-09-21T01:37:52;4.17;;;3.87;;
5153;SDS011;2595;53.584;10.084;2022-09-21T01:40:32;4.03;;;3.73;;
5153;SDS011;2595;53.584;10.084;2022-09-21T01:43:02;4.13;;;3.73;;
5153;SDS011;2595;53.584;10.084;2022-09-21T01:45:31;4.90;;;4.20;;
5153;SDS011;2595;53.584;10.084;2022-09-21T01:47:59;4.20;;;3.90;;
5153;SDS011;2595;53.584;10.084;2022-09-21T01:50:26;5.10;;;3.83;;
5153;SDS011;2595;53.584;10.084;2022-09-21T01:53:16;5.13;;;3.30;;
5153;SDS011;2595;53.584;10.084;2022-09-21T01:55:51;4.07;;;3.80;;
5153;SDS011;2595;53.584;10.084;2022-09-21T01:58:34;4.17;;;3.70;;
5153;SDS011;2595;53.584;10.084;2022-09-21T02:01:05;4.03;;;3.67;;
5153;SDS011;2595;53.584;10.084;2022-09-21T02:03:38;3.30;;;3.10;;
5153;SDS011;2595;53.584;10.084;2022-09-21T02:06:15;4.40;;;4.07;;
5153;SDS011;2595;53.584;10.084;2022-09-21T02:08:43;6.07;;;4.23;;
5153;SDS011;2595;53.584;10.084;2022-09-21T02:11:10;4.30;;;3.27;;
5153;SDS011;2595;53.584;10.084;2022-09-21T02:13:38;3.67;;;3.43;;
5153;SDS011;2595;53.584;10.084;2022-09-21T02:18:52;4.57;;;4.17;;
5153;SDS011;2595;53.584;10.084;2022-09-21T02:21:30;4.23;;;3.73;;
5153;SDS011;2595;53.584;10.084;2022-09-21T02:26:44;4.80;;;4.20;;
5153;SDS011;2595;53.584;10.084;2022-09-21T02:31:52;4.20;;;3.60;;
5153;SDS011;2595;53.584;10.084;2022-09-21T02:34:28;3.77;;;3.47;;
5153;SDS011;2595;53.584;10.084;2022-09-21T02:37:07;3.70;;;3.37;;
5153;SDS011;2595;53.584;10.084;2022-09-21T02:39:47;3.50;;;3.20;;
5153;SDS011;2595;53.584;10.084;2022-09-21T02:42:23;3.10;;;2.90;;
5153;SDS011;2595;53.584;10.084;2022-09-21T02:44:58;4.27;;;3.83;;
5153;SDS011;2595;53.584;10.084;2022-09-21T02:47:35;4.20;;;3.90;;
5153;SDS011;2595;53.584;10.084;2022-09-21T02:50:22;3.27;;;3.07;;
5153;SDS011;2595;53.584;10.084;2022-09-21T02:52:53;5.97;;;3.10;;
5153;SDS011;2595;53.584;10.084;2022-09-21T02:55:19;5.40;;;3.77;;
5153;SDS011;2595;53.584;10.084;2022-09-21T02:57:46;6.10;;;3.77;;
5153;SDS011;2595;53.584;10.084;2022-09-21T03:00:14;4.07;;;3.77;;
5153;SDS011;2595;53.584;10.084;2022-09-21T03:02:41;4.23;;;3.83;;
5153;SDS011;2595;53.584;10.084;2022-09-21T03:05:09;3.93;;;3.63;;
5153;SDS011;2595;53.584;10.084;2022-09-21T03:07:36;4.10;;;3.80;;
5153;SDS011;2595;53.584;10.084;2022-09-21T03:10:02;3.73;;;3.43;;
5153;SDS011;2595;53.584;10.084;2022-09-21T03:12:30;4.70;;;3.40;;
5153;SDS011;2595;53.584;10.084;2022-09-21T03:14:56;5.20;;;3.63;;
5153;SDS011;2595;53.584;10.084;2022-09-21T03:17:22;5.27;;;4.87;;
5153;SDS011;2595;53.584;10.084;2022-09-21T03:19:48;4.57;;;4.10;;
5153;SDS011;2595;53.584;10.084;2022-09-21T03:22:14;3.70;;;3.40;;
5153;SDS011;2595;53.584;10.084;2022-09-21T03:24:41;4.37;;;3.90;;
5153;SDS011;2595;53.584;10.084;2022-09-21T03:27:10;4.43;;;4.07;;
5153;SDS011;2595;53.584;10.084;2022-09-21T03:29:37;12.10;;;4.00;;
5153;SDS011;2595;53.584;10.084;2022-09-21T03:32:02;4.83;;;4.57;;
5153;SDS011;2595;53.584;10.084;2022-09-21T03:34:28;4.20;;;3.90;;
5153;SDS011;2595;53.584;10.084;2022-09-21T03:36:56;3.60;;;3.30;;
5153;SDS011;2595;53.584;10.084;2022-09-21T03:39:22;3.70;;;3.40;;
5153;SDS011;2595;53.584;10.084;2022-09-21T03:41:47;4.27;;;3.50;;
5153;SDS011;2595;53.584;10.084;2022-09-21T03:44:14;3.87;;;3.57;;
5153;SDS011;2595;53.584;10.084;2022-09-21T03:46:41;4.50;;;4.10;;
5153;SDS011;2595;53.584;10.084;2022-09-21T03:49:07;5.83;;;3.77;;
5153;SDS011;2595;53.584;10.084;2022-09-21T03:51:32;3.63;;;3.33;;
5153;SDS011;2595;53.584;10.084;2022-09-21T03:53:58;4.17;;;3.83;;
5153;SDS011;2595;53.584;10.084;2022-09-21T03:56:24;4.57;;;4.27;;
5153;SDS011;2595;53.584;10.084;2022-09-21T03:58:49;4.70;;;4.30;;
5153;SDS011;2595;53.584;10.084;2022-09-21T04:01:15;3.93;;;3.73;;
5153;SDS011;2595;53.584;10.084;2022-09-21T04:03:40;4.97;;;4.10;;
5153;SDS011;2595;53.584;10.084;2022-09-21T04:06:10;4.17;;;3.77;;
5153;SDS011;2595;53.584;10.084;2022-09-21T04:08:36;4.40;;;4.00;;
5153;SDS011;2595;53.584;10.084;2022-09-21T04:11:10;3.90;;;3.60;;
5153;SDS011;2595;53.584;10.084;2022-09-21T04:13:40;4.43;;;4.03;;
5153;SDS011;2595;53.584;10.084;2022-09-21T04:16:06;5.00;;;4.60;;
5153;SDS011;2595;53.584;10.084;2022-09-21T04:18:33;3.90;;;3.23;;
5153;SDS011;2595;53.584;10.084;2022-09-21T04:20:59;5.20;;;3.80;;
5153;SDS011;2595;53.584;10.084;2022-09-21T04:23:25;5.13;;;4.70;;
5153;SDS011;2595;53.584;10.084;2022-09-21T04:25:50;5.40;;;4.63;;
5153;SDS011;2595;53.584;10.084;2022-09-21T04:28:18;6.07;;;5.57;;
5153;SDS011;2595;53.584;10.084;2022-09-21T04:30:43;10.53;;;5.20;;
5153;SDS011;2595;53.584;10.084;2022-09-21T04:33:09;5.97;;;5.37;;
5153;SDS011;2595;53.584;10.084;2022-09-21T04:35:34;7.43;;;5.37;;
5153;SDS011;2595;53.584;10.084;2022-09-21T04:38:00;5.57;;;5.17;;
5153;SDS011;2595;53.584;10.084;2022-09-21T04:40:26;5.77;;;5.37;;
5153;SDS011;2595;53.584;10.084;2022-09-21T04:42:52;6.40;;;5.90;;
5153;SDS011;2595;53.584;10.084;2022-09-21T04:45:21;5.23;;;4.53;;
5153;SDS011;2595;53.584;10.084;2022-09-21T04:47:47;5.90;;;5.43;;
5153;SDS011;2595;53.584;10.084;2022-09-21T04:50:13;6.03;;;5.47;;
5153;SDS011;2595;53.584;10.084;2022-09-21T04:52:39;7.10;;;5.67;;
5153;SDS011;2595;53.584;10.084;2022-09-21T04:55:05;9.80;;;5.37;;
5153;SDS011;2595;53.584;10.084;2022-09-21T04:57:31;6.90;;;5.27;;
5153;SDS011;2595;53.584;10.084;2022-09-21T04:59:57;4.43;;;4.13;;
5153;SDS011;2595;53.584;10.084;2022-09-21T05:02:23;6.87;;;6.27;;
5153;SDS011;2595;53.584;10.084;2022-09-21T05:04:48;5.90;;;5.50;;
5153;SDS011;2595;53.584;10.084;2022-09-21T05:07:14;7.13;;;5.20;;
5153;SDS011;2595;53.584;10.084;2022-09-21T05:09:40;6.63;;;5.80;;
5153;SDS011;2595;53.584;10.084;2022-09-21T05:12:41;6.03;;;4.90;;
5153;SDS011;2595;53.584;10.084;2022-09-21T05:15:07;16.73;;;5.27;;
5153;SDS011;2595;53.584;10.084;2022-09-21T05:17:35;4.90;;;4.60;;
5153;SDS011;2595;53.584;10.084;2022-09-21T05:20:01;4.93;;;4.60;;
5153;SDS011;2595;53.584;10.084;2022-09-21T05:22:27;5.17;;;4.70;;
5153;SDS011;2595;53.584;10.084;2022-09-21T05:24:52;6.40;;;5.20;;
5153;SDS011;2595;53.584;10.084;2022-09-21T05:27:18;5.70;;;5.30;;
5153;SDS011;2595;53.584;10.084;2022-09-21T05:29:43;9.07;;;4.80;;
5153;SDS011;2595;53.584;10.084;2022-09-21T05:40:15;5.43;;;5.10;;
5153;SDS011;2595;53.584;10.084;2022-09-21T05:42:41;5.97;;;4.63;;
5153;SDS011;2595;53.584;10.084;2022-09-21T05:45:11;8.70;;;5.93;;
5153;SDS011;2595;53.584;10.084;2022-09-21T05:47:39;6.40;;;5.90;;
5153;SDS011;2595;53.584;10.084;2022-09-21T05:53:45;5.50;;;5.10;;
5153;SDS011;2595;53.584;10.084;2022-09-21T05:56:28;6.20;;;5.70;;
5153;SDS011;2595;53.584;10.084;2022-09-21T05:59:05;5.90;;;5.40;;
5153;SDS011;2595;53.584;10.084;2022-09-21T06:02:04;5.30;;;4.80;;
5153;SDS011;2595;53.584;10.084;2022-09-21T06:04:40;9.33;;;5.00;;
5153;SDS011;2595;53.584;10.084;2022-09-21T06:07:06;6.17;;;5.73;;
5153;SDS011;2595;53.584;10.084;2022-09-21T06:09:31;5.77;;;5.00;;
5153;SDS011;2595;53.584;10.084;2022-09-21T06:11:57;6.47;;;6.07;;
5153;SDS011;2595;53.584;10.084;2022-09-21T06:14:23;5.30;;;4.90;;
5153;SDS011;2595;53.584;10.084;2022-09-21T06:16:49;6.73;;;5.37;;
5153;SDS011;2595;53.584;10.084;2022-09-21T06:19:16;5.07;;;4.77;;
5153;SDS011;2595;53.584;10.084;2022-09-21T06:21:41;6.47;;;5.57;;
5153;SDS011;2595;53.584;10.084;2022-09-21T06:24:07;5.63;;;5.20;;
5153;SDS011;2595;53.584;10.084;2022-09-21T06:26:33;5.60;;;5.20;;
5153;SDS011;2595;53.584;10.084;2022-09-21T06:28:58;5.73;;;5.23;;
5153;SDS011;2595;53.584;10.084;2022-09-21T06:31:25;6.37;;;5.77;;
5153;SDS011;2595;53.584;10.084;2022-09-21T06:33:51;7.10;;;4.73;;
5153;SDS011;2595;53.584;10.084;2022-09-21T06:36:17;5.80;;;5.40;;
5153;SDS011;2595;53.584;10.084;2022-09-21T06:38:43;5.80;;;5.23;;
5153;SDS011;2595;53.584;10.084;2022-09-21T06:41:09;5.87;;;5.43;;
5153;SDS011;2595;53.584;10.084;2022-09-21T06:43:34;7.73;;;5.23;;
5153;SDS011;2595;53.584;10.084;2022-09-21T06:46:00;7.40;;;7.00;;
5153;SDS011;2595;53.584;10.084;2022-09-21T06:48:27;8.23;;;7.60;;
5153;SDS011;2595;53.584;10.084;2022-09-21T06:51:00;7.17;;;6.67;;
5153;SDS011;2595;53.584;10.084;2022-09-21T06:53:28;8.07;;;7.33;;
5153;SDS011;2595;53.584;10.084;2022-09-21T06:56:05;7.93;;;7.20;;
5153;SDS011;2595;53.584;10.084;2022-09-21T06:58:32;7.73;;;7.03;;
5153;SDS011;2595;53.584;10.084;2022-09-21T07:01:08;7.67;;;6.57;;
5153;SDS011;2595;53.584;10.084;2022-09-21T07:03:36;8.67;;;7.87;;
5153;SDS011;2595;53.584;10.084;2022-09-21T07:06:03;8.67;;;8.03;;
5153;SDS011;2595;53.584;10.084;2022-09-21T07:08:29;11.80;;;7.60;;
5153;SDS011;2595;53.584;10.084;2022-09-21T07:10:58;8.43;;;7.80;;
5153;SDS011;2595;53.584;10.084;2022-09-21T07:13:25;6.57;;;6.20;;
5153;SDS011;2595;53.584;10.084;2022-09-21T07:15:51;7.90;;;7.30;;
5153;SDS011;2595;53.584;10.084;2022-09-21T07:18:17;7.57;;;6.90;;
5153;SDS011;2595;53.584;10.084;2022-09-21T07:20:43;8.47;;;7.70;;
5153;SDS011;2595;53.584;10.084;2022-09-21T07:23:09;10.83;;;9.17;;
5153;SDS011;2595;53.584;10.084;2022-09-21T07:25:40;10.87;;;8.50;;
5153;SDS011;2595;53.584;10.084;2022-09-21T07:28:06;9.83;;;8.93;;
5153;SDS011;2595;53.584;10.084;2022-09-21T07:30:32;10.70;;;9.77;;
5153;SDS011;2595;53.584;10.084;2022-09-21T07:32:57;17.33;;;9.53;;
5153;SDS011;2595;53.584;10.084;2022-09-21T07:35:23;9.50;;;8.80;;
5153;SDS011;2595;53.584;10.084;2022-09-21T07:37:48;9.40;;;8.60;;
5153;SDS011;2595;53.584;10.084;2022-09-21T07:40:14;8.17;;;7.57;;
5153;SDS011;2595;53.584;10.084;2022-09-21T07:42:40;9.13;;;8.30;;
5153;SDS011;2595;53.584;10.084;2022-09-21T07:45:05;8.57;;;7.87;;
5153;SDS011;2595;53.584;10.084;2022-09-21T07:47:31;9.00;;;8.33;;
5153;SDS011;2595;53.584;10.084;2022-09-21T07:49:57;7.63;;;6.93;;
5153;SDS011;2595;53.584;10.084;2022-09-21T07:52:22;8.87;;;8.10;;
5153;SDS011;2595;53.584;10.084;2022-09-21T07:54:48;8.40;;;7.60;;
5153;SDS011;2595;53.584;10.084;2022-09-21T07:57:14;13.00;;;7.77;;
5153;SDS011;2595;53.584;10.084;2022-09-21T07:59:58;8.07;;;7.40;;
5153;SDS011;2595;53.584;10.084;2022-09-21T08:02:23;7.60;;;7.10;;
5153;SDS011;2595;53.584;10.084;2022-09-21T08:04:49;11.10;;;7.53;;
5153;SDS011;2595;53.584;10.084;2022-09-21T08:07:15;7.30;;;6.20;;
5153;SDS011;2595;53.584;10.084;2022-09-21T08:09:40;6.33;;;5.93;;
5153;SDS011;2595;53.584;10.084;2022-09-21T08:12:06;6.47;;;5.97;;
5153;SDS011;2595;53.584;10.084;2022-09-21T08:14:33;5.93;;;5.53;;
5153;SDS011;2595;53.584;10.084;2022-09-21T08:17:00;7.30;;;6.83;;
5153;SDS011;2595;53.584;10.084;2022-09-21T08:19:26;6.80;;;6.03;;
5153;SDS011;2595;53.584;10.084;2022-09-21T08:21:52;9.97;;;7.43;;
5153;SDS011;2595;53.584;10.084;2022-09-21T08:24:18;7.70;;;5.77;;
5153;SDS011;2595;53.584;10.084;2022-09-21T08:26:44;6.50;;;5.90;;
5153;SDS011;2595;53.584;10.084;2022-09-21T08:29:10;6.93;;;6.30;;
5153;SDS011;2595;53.584;10.084;2022-09-21T08:31:38;7.30;;;5.90;;
5153;SDS011;2595;53.584;10.084;2022-09-21T08:34:04;6.43;;;6.03;;
5153;SDS011;2595;53.584;10.084;2022-09-21T08:36:30;12.17;;;6.20;;
5153;SDS011;2595;53.584;10.084;2022-09-21T08:38:55;6.13;;;5.20;;
5153;SDS011;2595;53.584;10.084;2022-09-21T08:49:32;5.93;;;5.53;;
5153;SDS011;2595;53.584;10.084;2022-09-21T08:52:07;8.50;;;7.63;;
5153;SDS011;2595;53.584;10.084;2022-09-21T08:54:58;6.67;;;4.70;;
5153;SDS011;2595;53.584;10.084;2022-09-21T08:57:30;4.03;;;3.23;;
5153;SDS011;2595;53.584;10.084;2022-09-21T08:59:58;4.80;;;4.40;;
5153;SDS011;2595;53.584;10.084;2022-09-21T09:11:08;3.50;;;3.20;;
5153;SDS011;2595;53.584;10.084;2022-09-21T09:13:37;7.67;;;4.00;;
5153;SDS011;2595;53.584;10.084;2022-09-21T09:18:59;5.47;;;4.40;;
5153;SDS011;2595;53.584;10.084;2022-09-21T09:21:44;3.60;;;3.40;;
5153;SDS011;2595;53.584;10.084;2022-09-21T09:24:18;3.97;;;3.77;;
5153;SDS011;2595;53.584;10.084;2022-09-21T09:27:02;3.47;;;3.27;;
5153;SDS011;2595;53.584;10.084;2022-09-21T09:32:17;3.77;;;3.47;;
5153;SDS011;2595;53.584;10.084;2022-09-21T09:34:54;3.80;;;3.50;;
5153;SDS011;2595;53.584;10.084;2022-09-21T09:37:32;2.50;;;2.37;;
5153;SDS011;2595;53.584;10.084;2022-09-21T09:40:02;2.83;;;2.60;;
5153;SDS011;2595;53.584;10.084;2022-09-21T09:48:20;6.93;;;3.30;;
5153;SDS011;2595;53.584;10.084;2022-09-21T09:50:50;4.97;;;3.77;;
5153;SDS011;2595;53.584;10.084;2022-09-21T09:53:17;3.30;;;3.10;;
5153;SDS011;2595;53.584;10.084;2022-09-21T09:55:53;3.53;;;3.10;;
5153;SDS011;2595;53.584;10.084;2022-09-21T10:01:01;2.80;;;2.60;;
5153;SDS011;2595;53.584;10.084;2022-09-21T10:03:27;3.23;;;2.80;;
5153;SDS011;2595;53.584;10.084;2022-09-21T10:05:53;3.57;;;3.27;;
5153;SDS011;2595;53.584;10.084;2022-09-21T10:11:08;3.90;;;2.30;;
5153;SDS011;2595;53.584;10.084;2022-09-21T10:13:36;4.13;;;3.10;;
5153;SDS011;2595;53.584;10.084;2022-09-21T10:21:33;3.77;;;2.00;;
5153;SDS011;2595;53.584;10.084;2022-09-21T10:24:13;1.77;;;1.67;;
5153;SDS011;2595;53.584;10.084;2022-09-21T10:26:46;2.00;;;1.40;;
5153;SDS011;2595;53.584;10.084;2022-09-21T10:31:56;4.00;;;1.20;;
5153;SDS011;2595;53.584;10.084;2022-09-21T10:34:22;1.57;;;1.47;;
5153;SDS011;2595;53.584;10.084;2022-09-21T10:36:50;1.50;;;1.40;;
5153;SDS011;2595;53.584;10.084;2022-09-21T10:39:19;2.23;;;1.17;;
5153;SDS011;2595;53.584;10.084;2022-09-21T10:41:58;1.40;;;1.27;;
5153;SDS011;2595;53.584;10.084;2022-09-21T10:44:33;1.60;;;1.50;;
5153;SDS011;2595;53.584;10.084;2022-09-21T10:47:19;1.13;;;1.03;;
5153;SDS011;2595;53.584;10.084;2022-09-21T10:49:56;1.03;;;0.90;;
5153;SDS011;2595;53.584;10.084;2022-09-21T10:52:31;1.30;;;1.20;;
5153;SDS011;2595;53.584;10.084;2022-09-21T10:55:05;1.10;;;1.00;;
5153;SDS011;2595;53.584;10.084;2022-09-21T10:57:39;1.30;;;1.20;;
5153;SDS011;2595;53.584;10.084;2022-09-21T11:00:26;1.20;;;1.10;;
5153;SDS011;2595;53.584;10.084;2022-09-21T11:02:58;1.10;;;0.90;;
5153;SDS011;2595;53.584;10.084;2022-09-21T11:05:28;1.20;;;1.10;;
5153;SDS011;2595;53.584;10.084;2022-09-21T11:08:14;1.27;;;0.93;;
5153;SDS011;2595;53.584;10.084;2022-09-21T11:16:32;0.93;;;0.83;;
5153;SDS011;2595;53.584;10.084;2022-09-21T11:24:31;1.30;;;1.20;;
5153;SDS011;2595;53.584;10.084;2022-09-21T11:29:57;1.77;;;1.10;;
5153;SDS011;2595;53.584;10.084;2022-09-21T11:32:38;2.27;;;1.00;;
5153;SDS011;2595;53.584;10.084;2022-09-21T11:36:22;1.37;;;1.20;;
5153;SDS011;2595;53.584;10.084;2022-09-21T11:38:25;2.50;;;1.00;;
5153;SDS011;2595;53.584;10.084;2022-09-21T11:41:25;1.30;;;1.20;;
5153;SDS011;2595;53.584;10.084;2022-09-21T11:44:11;1.37;;;0.90;;
5153;SDS011;2595;53.584;10.084;2022-09-21T11:49:46;0.90;;;0.90;;
5153;SDS011;2595;53.584;10.084;2022-09-21T11:52:39;0.80;;;0.80;;
5153;SDS011;2595;53.584;10.084;2022-09-21T11:58:13;1.30;;;0.90;;
5153;SDS011;2595;53.584;10.084;2022-09-21T12:00:50;1.10;;;1.00;;
5153;SDS011;2595;53.584;10.084;2022-09-21T12:03:40;0.90;;;0.73;;
5153;SDS011;2595;53.584;10.084;2022-09-21T12:06:15;0.80;;;0.80;;
5153;SDS011;2595;53.584;10.084;2022-09-21T12:11:31;1.17;;;1.07;;
5153;SDS011;2595;53.584;10.084;2022-09-21T12:19:25;1.17;;;0.90;;
5153;SDS011;2595;53.584;10.084;2022-09-21T12:24:46;0.70;;;0.60;;
5153;SDS011;2595;53.584;10.084;2022-09-21T12:27:25;1.10;;;1.00;;
5153;SDS011;2595;53.584;10.084;2022-09-21T12:29:57;0.70;;;0.70;;
5153;SDS011;2595;53.584;10.084;2022-09-21T12:32:53;1.73;;;0.80;;
5153;SDS011;2595;53.584;10.084;2022-09-21T12:35:22;1.67;;;0.70;;
5153;SDS011;2595;53.584;10.084;2022-09-21T12:40:57;1.03;;;0.80;;
5153;SDS011;2595;53.584;10.084;2022-09-21T12:43:47;0.80;;;0.70;;
5153;SDS011;2595;53.584;10.084;2022-09-21T12:46:41;0.80;;;0.70;;
5153;SDS011;2595;53.584;10.084;2022-09-21T12:49:13;0.70;;;0.70;;
5153;SDS011;2595;53.584;10.084;2022-09-21T12:51:44;0.83;;;0.83;;
5153;SDS011;2595;53.584;10.084;2022-09-21T12:54:22;1.67;;;0.70;;
5153;SDS011;2595;53.584;10.084;2022-09-21T12:56:54;1.20;;;1.10;;
5153;SDS011;2595;53.584;10.084;2022-09-21T13:02:49;1.40;;;1.00;;
5153;SDS011;2595;53.584;10.084;2022-09-21T13:05:21;2.30;;;1.00;;
5153;SDS011;2595;53.584;10.084;2022-09-21T13:12:54;0.90;;;0.80;;
5153;SDS011;2595;53.584;10.084;2022-09-21T13:15:31;1.20;;;1.10;;
5153;SDS011;2595;53.584;10.084;2022-09-21T13:18:15;2.00;;;1.00;;
5153;SDS011;2595;53.584;10.084;2022-09-21T13:20:45;0.90;;;0.90;;
5153;SDS011;2595;53.584;10.084;2022-09-21T13:23:15;0.93;;;0.83;;
5153;SDS011;2595;53.584;10.084;2022-09-21T13:25:46;1.43;;;1.33;;
5153;SDS011;2595;53.584;10.084;2022-09-21T13:31:28;2.07;;;0.90;;
5153;SDS011;2595;53.584;10.084;2022-09-21T13:34:15;1.03;;;0.90;;
5153;SDS011;2595;53.584;10.084;2022-09-21T13:36:45;1.07;;;0.90;;
5153;SDS011;2595;53.584;10.084;2022-09-21T13:39:48;1.07;;;0.97;;
5153;SDS011;2595;53.584;10.084;2022-09-21T13:44:56;1.00;;;0.80;;
5153;SDS011;2595;53.584;10.084;2022-09-21T13:47:27;0.80;;;0.70;;
5153;SDS011;2595;53.584;10.084;2022-09-21T13:49:56;0.97;;;0.87;;
5153;SDS011;2595;53.584;10.084;2022-09-21T13:52:27;0.80;;;0.80;;
5153;SDS011;2595;53.584;10.084;2022-09-21T13:55:00;1.20;;;1.10;;
5153;SDS011;2595;53.584;10.084;2022-09-21T13:57:38;1.70;;;0.90;;
5153;SDS011;2595;53.584;10.084;2022-09-21T14:02:37;1.20;;;1.10;;
5153;SDS011;2595;53.584;10.084;2022-09-21T14:07:30;1.67;;;0.90;;
5153;SDS011;2595;53.584;10.084;2022-09-21T14:09:58;1.20;;;1.10;;
5153;SDS011;2595;53.584;10.084;2022-09-21T14:12:31;1.20;;;1.10;;
5153;SDS011;2595;53.584;10.084;2022-09-21T14:17:43;0.93;;;0.83;;
5153;SDS011;2595;53.584;10.084;2022-09-21T14:20:26;1.33;;;1.10;;
5153;SDS011;2595;53.584;10.084;2022-09-21T14:23:39;1.27;;;1.17;;
5153;SDS011;2595;53.584;10.084;2022-09-21T14:25:53;1.10;;;1.00;;
5153;SDS011;2595;53.584;10.084;2022-09-21T14:28:40;1.23;;;1.10;;
5153;SDS011;2595;53.584;10.084;2022-09-21T14:31:24;1.00;;;1.00;;
5153;SDS011;2595;53.584;10.084;2022-09-21T14:33:54;1.00;;;0.90;;
5153;SDS011;2595;53.584;10.084;2022-09-21T14:36:23;1.10;;;1.00;;
5153;SDS011;2595;53.584;10.084;2022-09-21T14:39:02;0.80;;;0.80;;
5153;SDS011;2595;53.584;10.084;2022-09-21T14:41:39;0.80;;;0.80;;
5153;SDS011;2595;53.584;10.084;2022-09-21T14:44:06;1.00;;;0.87;;
5153;SDS011;2595;53.584;10.084;2022-09-21T14:46:57;1.40;;;1.20;;
5153;SDS011;2595;53.584;10.084;2022-09-21T14:52:29;1.10;;;0.97;;
5153;SDS011;2595;53.584;10.084;2022-09-21T14:55:16;1.10;;;1.00;;
5153;SDS011;2595;53.584;10.084;2022-09-21T15:05:54;1.70;;;1.60;;
5153;SDS011;2595;53.584;10.084;2022-09-21T15:12:11;1.87;;;1.40;;
5153;SDS011;2595;53.584;10.084;2022-09-21T15:14:55;1.33;;;1.20;;
5153;SDS011;2595;53.584;10.084;2022-09-21T15:17:53;1.40;;;1.30;;
5153;SDS011;2595;53.584;10.084;2022-09-21T15:20:23;1.57;;;1.30;;
5153;SDS011;2595;53.584;10.084;2022-09-21T15:22:53;1.47;;;1.37;;
5153;SDS011;2595;53.584;10.084;2022-09-21T15:25:20;1.40;;;1.30;;
5153;SDS011;2595;53.584;10.084;2022-09-21T15:27:48;2.27;;;1.63;;
5153;SDS011;2595;53.584;10.084;2022-09-21T15:30:22;1.67;;;1.57;;
5153;SDS011;2595;53.584;10.084;2022-09-21T15:32:57;1.90;;;1.10;;
5153;SDS011;2595;53.584;10.084;2022-09-21T15:35:25;1.73;;;1.63;;
5153;SDS011;2595;53.584;10.084;2022-09-21T15:37:53;2.10;;;1.47;;
5153;SDS011;2595;53.584;10.084;2022-09-21T15:40:21;1.70;;;1.60;;
5153;SDS011;2595;53.584;10.084;2022-09-21T15:45:48;1.93;;;1.43;;
5153;SDS011;2595;53.584;10.084;2022-09-21T15:48:23;1.70;;;1.30;;
5153;SDS011;2595;53.584;10.084;2022-09-21T15:50:53;2.30;;;2.10;;
5153;SDS011;2595;53.584;10.084;2022-09-21T15:53:30;1.23;;;1.13;;
5153;SDS011;2595;53.584;10.084;2022-09-21T15:55:58;1.97;;;1.40;;
5153;SDS011;2595;53.584;10.084;2022-09-21T15:58:32;1.80;;;1.37;;
5153;SDS011;2595;53.584;10.084;2022-09-21T16:01:02;1.30;;;1.20;;
5153;SDS011;2595;53.584;10.084;2022-09-21T16:03:34;1.83;;;1.23;;
5153;SDS011;2595;53.584;10.084;2022-09-21T16:05:59;2.10;;;1.90;;
5153;SDS011;2595;53.584;10.084;2022-09-21T16:08:47;2.20;;;1.17;;
5153;SDS011;2595;53.584;10.084;2022-09-21T16:13:43;1.83;;;1.47;;
5153;SDS011;2595;53.584;10.084;2022-09-21T16:17:27;2.17;;;1.50;;
5153;SDS011;2595;53.584;10.084;2022-09-21T16:19:42;1.77;;;1.23;;
5153;SDS011;2595;53.584;10.084;2022-09-21T16:22:13;1.67;;;1.20;;
5153;SDS011;2595;53.584;10.084;2022-09-21T16:24:57;1.50;;;1.40;;
5153;SDS011;2595;53.584;10.084;2022-09-21T16:27:26;1.40;;;1.17;;
5153;SDS011;2595;53.584;10.084;2022-09-21T16:29:54;1.43;;;1.33;;
5153;SDS011;2595;53.584;10.084;2022-09-21T16:32:30;1.60;;;1.50;;
5153;SDS011;2595;53.584;10.084;2022-09-21T16:37:52;1.73;;;1.50;;
5153;SDS011;2595;53.584;10.084;2022-09-21T16:40:23;1.53;;;1.10;;
5153;SDS011;2595;53.584;10.084;2022-09-21T16:42:49;1.37;;;1.27;;
5153;SDS011;2595;53.584;10.084;2022-09-21T16:45:18;1.50;;;1.40;;
5153;SDS011;2595;53.584;10.084;2022-09-21T16:47:49;1.90;;;1.80;;
5153;SDS011;2595;53.584;10.084;2022-09-21T16:50:16;1.33;;;1.23;;
5153;SDS011;2595;53.584;10.084;2022-09-21T16:52:43;3.27;;;1.97;;
5153;SDS011;2595;53.584;10.084;2022-09-21T16:55:16;1.40;;;1.30;;
5153;SDS011;2595;53.584;10.084;2022-09-21T16:57:43;6.07;;;1.70;;
5153;SDS011;2595;53.584;10.084;2022-09-21T17:00:13;1.60;;;1.47;;
5153;SDS011;2595;53.584;10.084;2022-09-21T17:02:46;2.10;;;2.00;;
5153;SDS011;2595;53.584;10.084;2022-09-21T17:05:12;3.60;;;1.70;;
5153;SDS011;2595;53.584;10.084;2022-09-21T17:07:46;2.23;;;2.03;;
5153;SDS011;2595;53.584;10.084;2022-09-21T17:10:17;2.07;;;1.97;;
5153;SDS011;2595;53.584;10.084;2022-09-21T17:12:44;3.20;;;2.20;;
5153;SDS011;2595;53.584;10.084;2022-09-21T17:15:13;2.50;;;2.30;;
5153;SDS011;2595;53.584;10.084;2022-09-21T17:17:39;2.80;;;2.60;;
5153;SDS011;2595;53.584;10.084;2022-09-21T17:20:12;2.87;;;2.20;;
5153;SDS011;2595;53.584;10.084;2022-09-21T17:22:42;2.00;;;1.80;;
5153;SDS011;2595;53.584;10.084;2022-09-21T17:25:08;2.10;;;1.90;;
5153;SDS011;2595;53.584;10.084;2022-09-21T17:27:34;1.87;;;1.67;;
5153;SDS011;2595;53.584;10.084;2022-09-21T17:29:59;3.83;;;2.00;;
5153;SDS011;2595;53.584;10.084;2022-09-21T17:32:27;3.00;;;2.80;;
5153;SDS011;2595;53.584;10.084;2022-09-21T17:34:54;3.87;;;3.57;;
5153;SDS011;2595;53.584;10.084;2022-09-21T17:37:41;5.30;;;2.93;;
5153;SDS011;2595;53.584;10.084;2022-09-21T17:40:07;3.30;;;2.33;;
5153;SDS011;2595;53.584;10.084;2022-09-21T17:42:34;3.43;;;2.30;;
5153;SDS011;2595;53.584;10.084;2022-09-21T17:45:08;2.73;;;2.53;;
5153;SDS011;2595;53.584;10.084;2022-09-21T17:47:40;2.50;;;2.40;;
5153;SDS011;2595;53.584;10.084;2022-09-21T17:52:38;3.77;;;2.23;;
5153;SDS011;2595;53.584;10.084;2022-09-21T17:55:23;2.20;;;1.87;;
5153;SDS011;2595;53.584;10.084;2022-09-21T17:57:57;3.87;;;2.53;;
5153;SDS011;2595;53.584;10.084;2022-09-21T18:00:30;2.10;;;1.80;;